Time;durP1;ratioP1;P1;durP2;ratioP2;P2;SDS_P1;SDS_P2;PMS_P1;PMS_P2;Temp;Humidity;BMP_temperature;BMP_pressure;BME280_temperature;BME280_humidity;BME280_pressure;Samples;Min_cycle;Max_cycle;Signal;HPM_P1;HPM_P2
2023/11/08 00:02:18;;;;;;;56.10;2.23;;;;;;;;;;5072104;28;20949;-72
2023/11/08 00:04:45;;;;;;;55.80;2.30;;;;;;;;;;5071049;28;20445;-72
2023/11/08 00:07:12;;;;;;;55.73;2.50;;;;;;;;;;5071938;28;20512;-74
2023/11/08 00:09:40;;;;;;;55.80;2.50;;;;;;;;;;5073428;28;20454;-73
2023/11/08 00:12:08;;;;;;;55.60;2.20;;;;;;;;;;5073761;28;20470;-75
2023/11/08 00:14:35;;;;;;;56.50;2.13;;;;;;;;;;5073460;28;20460;-73
2023/11/08 00:17:03;;;;;;;55.60;2.20;;;;;;;;;;5073454;28;20475;-75
2023/11/08 00:19:31;;;;;;;55.27;1.87;;;;;;;;;;5059955;28;20521;-72
2023/11/08 00:21:58;;;;;;;55.97;2.50;;;;;;;;;;5053208;28;20503;-70
2023/11/08 00:24:27;;;;;;;55.90;2.40;;;;;;;;;;5052461;28;20933;-69
2023/11/08 00:26:54;;;;;;;55.70;2.30;;;;;;;;;;5052382;28;20459;-72
2023/11/08 00:29:22;;;;;;;55.83;2.60;;;;;;;;;;5052323;28;20440;-73
2023/11/08 00:31:50;;;;;;;55.63;2.00;;;;;;;;;;5051980;28;20471;-72
2023/11/08 00:46:33;;;;;;;55.80;2.40;;;;;;;;;;5043535;28;20411;-71
2023/11/08 00:49:03;;;;;;;55.80;2.50;;;;;;;;;;5051548;28;20440;-71
2023/11/08 00:51:30;;;;;;;55.87;2.40;;;;;;;;;;5051145;28;20468;-71
2023/11/08 00:53:57;;;;;;;55.87;2.10;;;;;;;;;;5048528;28;20437;-72
2023/11/08 00:56:25;;;;;;;55.80;2.30;;;;;;;;;;5051432;28;20449;-71
2023/11/08 00:58:52;;;;;;;55.90;2.33;;;;;;;;;;5051672;28;20444;-71
2023/11/08 01:01:21;;;;;;;55.97;2.80;;;;;;;;;;5051273;28;20475;-71
2023/11/08 01:03:49;;;;;;;56.40;2.60;;;;;;;;;;5051398;28;20546;-70
2023/11/08 01:06:16;;;;;;;55.80;2.30;;;;;;;;;;5050939;28;20455;-71
2023/11/08 01:08:43;;;;;;;55.90;2.40;;;;;;;;;;5051431;28;20454;-72
2023/11/08 01:11:10;;;;;;;55.80;2.23;;;;;;;;;;5051421;28;20465;-70
2023/11/08 01:13:37;;;;;;;55.80;2.10;;;;;;;;;;5050936;28;20444;-72
2023/11/08 01:16:06;;;;;;;56.00;2.70;;;;;;;;;;5051163;28;20448;-72
2023/11/08 01:18:34;;;;;;;55.73;2.30;;;;;;;;;;5051115;28;20506;-70
2023/11/08 01:21:03;;;;;;;56.07;2.80;;;;;;;;;;5051130;28;20771;-71
2023/11/08 01:23:30;;;;;;;55.83;2.40;;;;;;;;;;5051107;28;20494;-71
2023/11/08 01:25:57;;;;;;;55.73;2.50;;;;;;;;;;5050888;28;20448;-74
2023/11/08 01:28:24;;;;;;;56.03;2.70;;;;;;;;;;5054760;28;20454;-72
2023/11/08 01:30:51;;;;;;;55.73;2.20;;;;;;;;;;5054801;28;20460;-71
2023/11/08 01:33:18;;;;;;;56.10;2.40;;;;;;;;;;5054738;28;20440;-71
2023/11/08 01:35:45;;;;;;;55.77;2.10;;;;;;;;;;5054634;28;20453;-72
2023/11/08 01:38:14;;;;;;;55.83;2.23;;;;;;;;;;5054823;28;20453;-72
2023/11/08 01:40:44;;;;;;;57.67;3.30;;;;;;;;;;5054810;28;20468;-70
2023/11/08 01:43:26;;;;;;;55.93;2.47;;;;;;;;;;5054596;28;21073;-72
2023/11/08 01:45:56;;;;;;;56.10;3.10;;;;;;;;;;5054352;28;20459;-71
2023/11/08 01:48:23;;;;;;;72.10;2.60;;;;;;;;;;5054500;28;20450;-72
2023/11/08 01:50:50;;;;;;;55.70;2.40;;;;;;;;;;5054619;28;20471;-72
2023/11/08 01:53:19;;;;;;;55.93;2.50;;;;;;;;;;5054252;28;20448;-71
2023/11/08 01:55:46;;;;;;;55.77;2.37;;;;;;;;;;5054044;28;20448;-71
2023/11/08 01:58:13;;;;;;;55.80;2.20;;;;;;;;;;5053817;28;20457;-72
2023/11/08 02:00:42;;;;;;;55.67;2.50;;;;;;;;;;5054206;28;20508;-73
2023/11/08 02:03:09;;;;;;;55.60;2.07;;;;;;;;;;5054069;28;20494;-71
2023/11/08 02:05:36;;;;;;;55.80;2.40;;;;;;;;;;5054343;28;20840;-70
2023/11/08 02:08:03;;;;;;;55.67;2.30;;;;;;;;;;5053962;28;20444;-71
2023/11/08 02:10:32;;;;;;;55.93;2.70;;;;;;;;;;5053649;28;20471;-71
2023/11/08 02:12:59;;;;;;;56.10;2.30;;;;;;;;;;5053772;28;20453;-72
2023/11/08 02:15:27;;;;;;;55.77;2.30;;;;;;;;;;5053803;28;20457;-73
2023/11/08 02:17:54;;;;;;;56.20;2.33;;;;;;;;;;5054016;28;20445;-71
2023/11/08 02:20:21;;;;;;;56.10;2.60;;;;;;;;;;5053765;28;20462;-72
2023/11/08 02:22:48;;;;;;;55.73;2.40;;;;;;;;;;5053752;28;20594;-72
2023/11/08 02:25:17;;;;;;;55.70;2.10;;;;;;;;;;5053684;28;20457;-72
2023/11/08 02:27:47;;;;;;;55.90;2.33;;;;;;;;;;5054076;28;20441;-71
2023/11/08 02:30:15;;;;;;;55.77;2.37;;;;;;;;;;5053206;28;20618;-72
2023/11/08 02:32:42;;;;;;;56.07;2.63;;;;;;;;;;5052747;28;20953;-72
2023/11/08 02:35:09;;;;;;;55.80;2.03;;;;;;;;;;5053123;28;20491;-72
2023/11/08 02:37:36;;;;;;;55.97;2.60;;;;;;;;;;5052809;28;20448;-72
2023/11/08 02:40:04;;;;;;;55.80;2.20;;;;;;;;;;5053070;28;20848;-72
2023/11/08 02:42:32;;;;;;;55.47;1.90;;;;;;;;;;5053356;28;20515;-73
2023/11/08 02:44:59;;;;;;;55.77;2.40;;;;;;;;;;5053433;28;20455;-72
2023/11/08 02:47:26;;;;;;;55.57;2.20;;;;;;;;;;5053002;28;20444;-72
2023/11/08 02:49:55;;;;;;;55.80;2.23;;;;;;;;;;5053008;28;20444;-72
2023/11/08 02:52:22;;;;;;;55.87;2.30;;;;;;;;;;5052988;28;20950;-71
2023/11/08 02:54:51;;;;;;;55.90;2.50;;;;;;;;;;5052933;28;20440;-73
2023/11/08 02:57:18;;;;;;;55.80;2.30;;;;;;;;;;5052463;28;20949;-72
2023/11/08 02:59:47;;;;;;;55.90;2.40;;;;;;;;;;5052416;28;20447;-71
2023/11/08 03:02:14;;;;;;;55.67;2.13;;;;;;;;;;5052532;28;20484;-72
2023/11/08 03:04:42;;;;;;;55.90;2.57;;;;;;;;;;5052650;28;20455;-71
2023/11/08 03:07:09;;;;;;;55.90;2.23;;;;;;;;;;5052559;28;20448;-72
2023/11/08 03:09:36;;;;;;;56.40;2.20;;;;;;;;;;5052619;28;20491;-72
2023/11/08 03:12:04;;;;;;;55.77;2.40;;;;;;;;;;5052475;28;20464;-71
2023/11/08 03:14:31;;;;;;;56.17;2.67;;;;;;;;;;5052485;28;20751;-71
2023/11/08 03:17:00;;;;;;;56.10;2.83;;;;;;;;;;5052982;28;20793;-71
2023/11/08 03:19:27;;;;;;;55.80;2.30;;;;;;;;;;5052271;28;20459;-72
2023/11/08 03:21:54;;;;;;;55.77;2.37;;;;;;;;;;5052072;28;20476;-73
2023/11/08 03:24:21;;;;;;;55.83;2.23;;;;;;;;;;5052691;28;20444;-71
2023/11/08 03:26:49;;;;;;;55.57;2.20;;;;;;;;;;5052723;28;20440;-72
2023/11/08 03:29:17;;;;;;;55.77;2.43;;;;;;;;;;5052476;28;20441;-71
2023/11/08 03:31:44;;;;;;;55.70;2.30;;;;;;;;;;5051966;28;20464;-73
2023/11/08 03:34:13;;;;;;;55.77;2.30;;;;;;;;;;5051965;28;20548;-72
2023/11/08 03:36:42;;;;;;;55.50;2.13;;;;;;;;;;5051660;28;20448;-72
2023/11/08 03:39:09;;;;;;;55.90;2.23;;;;;;;;;;5052174;28;20454;-71
2023/11/08 03:41:37;;;;;;;55.67;2.30;;;;;;;;;;5051800;28;20852;-72
2023/11/08 03:44:05;;;;;;;55.87;2.37;;;;;;;;;;5051730;28;20492;-72
2023/11/08 03:46:32;;;;;;;55.70;2.20;;;;;;;;;;5051407;28;20457;-71
2023/11/08 03:49:00;;;;;;;55.43;2.03;;;;;;;;;;5051196;28;20817;-72
2023/11/08 03:51:28;;;;;;;55.90;2.70;;;;;;;;;;5051590;28;20476;-72
2023/11/08 03:53:55;;;;;;;55.70;2.50;;;;;;;;;;5051684;28;20448;-72
2023/11/08 03:56:22;;;;;;;55.77;2.50;;;;;;;;;;5051454;28;20548;-72
2023/11/08 03:58:49;;;;;;;56.00;2.70;;;;;;;;;;5051845;28;20452;-71
2023/11/08 04:01:17;;;;;;;56.00;2.27;;;;;;;;;;5051360;28;20477;-73
2023/11/08 04:03:44;;;;;;;55.80;2.50;;;;;;;;;;5051562;28;20480;-71
2023/11/08 04:06:11;;;;;;;55.67;2.00;;;;;;;;;;5051129;28;20449;-72
2023/11/08 04:08:39;;;;;;;55.80;2.40;;;;;;;;;;5051299;28;20457;-72
2023/11/08 04:11:07;;;;;;;55.70;2.40;;;;;;;;;;5051246;28;20468;-72
2023/11/08 04:13:34;;;;;;;55.67;2.30;;;;;;;;;;5051234;28;20438;-72
2023/11/08 04:16:01;;;;;;;55.47;2.10;;;;;;;;;;5051136;28;20475;-73
2023/11/08 04:18:28;;;;;;;55.77;2.30;;;;;;;;;;5051171;28;20530;-71
2023/11/08 04:20:55;;;;;;;55.27;2.17;;;;;;;;;;5051311;28;20472;-72
2023/11/08 04:23:22;;;;;;;56.00;2.03;;;;;;;;;;5051002;28;20489;-71
2023/11/08 04:25:50;;;;;;;55.60;2.00;;;;;;;;;;5051126;28;20457;-73
2023/11/08 04:28:18;;;;;;;55.70;2.50;;;;;;;;;;5051043;28;20448;-72
2023/11/08 04:30:45;;;;;;;55.27;2.00;;;;;;;;;;5050795;28;20468;-72
2023/11/08 04:33:12;;;;;;;55.20;2.10;;;;;;;;;;5051099;28;20440;-71
2023/11/08 04:35:39;;;;;;;55.77;2.20;;;;;;;;;;5051038;28;20445;-72
2023/11/08 04:38:07;;;;;;;55.90;2.10;;;;;;;;;;5050848;28;20456;-73
2023/11/08 04:40:33;;;;;;;55.90;2.20;;;;;;;;;;5050831;28;21003;-72
2023/11/08 04:43:01;;;;;;;55.70;1.90;;;;;;;;;;5050659;28;20480;-72
2023/11/08 04:45:28;;;;;;;55.80;2.20;;;;;;;;;;5050830;28;20471;-72
2023/11/08 04:47:55;;;;;;;54.87;2.20;;;;;;;;;;5050964;28;20455;-71
2023/11/08 04:50:23;;;;;;;55.67;2.10;;;;;;;;;;5050729;28;20847;-71
2023/11/08 04:52:50;;;;;;;55.70;2.60;;;;;;;;;;5050651;28;20451;-72
2023/11/08 04:55:17;;;;;;;55.70;2.20;;;;;;;;;;5050667;28;20448;-71
2023/11/08 04:57:44;;;;;;;64.80;3.50;;;;;;;;;;5050813;28;20455;-72
2023/11/08 05:00:14;;;;;;;56.00;2.30;;;;;;;;;;5050685;28;20565;-71
2023/11/08 05:02:42;;;;;;;58.33;2.20;;;;;;;;;;5053430;28;20530;-72
2023/11/08 05:05:09;;;;;;;55.67;2.00;;;;;;;;;;5054898;28;20563;-72
2023/11/08 05:07:37;;;;;;;55.77;2.10;;;;;;;;;;5054788;28;20445;-71
2023/11/08 05:10:04;;;;;;;55.47;2.27;;;;;;;;;;5054515;28;20477;-72
2023/11/08 05:12:31;;;;;;;55.80;2.20;;;;;;;;;;5054550;28;20455;-71
2023/11/08 05:14:58;;;;;;;55.90;2.50;;;;;;;;;;5055094;28;20947;-73
2023/11/08 05:17:26;;;;;;;55.87;2.80;;;;;;;;;;5054683;28;20452;-72
2023/11/08 05:19:52;;;;;;;55.80;2.20;;;;;;;;;;5054606;28;20447;-71
2023/11/08 05:22:20;;;;;;;55.93;2.30;;;;;;;;;;5054407;28;20444;-72
2023/11/08 05:24:47;;;;;;;56.00;2.40;;;;;;;;;;5054623;28;20484;-71
2023/11/08 05:27:17;;;;;;;55.70;2.20;;;;;;;;;;5054784;28;20451;-71
2023/11/08 05:29:44;;;;;;;55.60;2.00;;;;;;;;;;5054700;28;20456;-71
2023/11/08 05:32:11;;;;;;;56.07;2.93;;;;;;;;;;5054419;28;20444;-71
2023/11/08 05:34:40;;;;;;;55.63;2.07;;;;;;;;;;5054479;28;20445;-71
2023/11/08 05:37:07;;;;;;;55.83;2.67;;;;;;;;;;5054217;28;20932;-71
2023/11/08 05:39:34;;;;;;;55.57;2.30;;;;;;;;;;5054161;28;20445;-73
2023/11/08 05:42:01;;;;;;;55.70;2.20;;;;;;;;;;5054383;28;20461;-71
2023/11/08 05:44:29;;;;;;;55.70;2.20;;;;;;;;;;5054033;28;20487;-73
2023/11/08 05:46:56;;;;;;;56.03;2.93;;;;;;;;;;5053901;28;20893;-71
2023/11/08 05:49:23;;;;;;;55.87;2.97;;;;;;;;;;5053900;28;20480;-71
2023/11/08 05:51:52;;;;;;;55.70;2.27;;;;;;;;;;5053972;28;20460;-71
2023/11/08 05:54:19;;;;;;;55.70;2.20;;;;;;;;;;5054341;28;20657;-72
2023/11/08 05:56:47;;;;;;;56.20;2.80;;;;;;;;;;5053922;28;20841;-71
2023/11/08 05:59:15;;;;;;;55.87;2.33;;;;;;;;;;5054025;28;20444;-71
2023/11/08 06:01:42;;;;;;;55.67;2.03;;;;;;;;;;5053657;28;20476;-72
2023/11/08 06:04:09;;;;;;;55.83;2.30;;;;;;;;;;5053570;28;20488;-72
2023/11/08 06:06:36;;;;;;;55.70;2.10;;;;;;;;;;5045192;28;20864;-71
2023/11/08 06:09:04;;;;;;;56.00;2.23;;;;;;;;;;5053845;28;20450;-72
2023/11/08 06:11:31;;;;;;;55.87;2.47;;;;;;;;;;5053361;28;20475;-73
2023/11/08 06:13:58;;;;;;;56.10;2.77;;;;;;;;;;5052935;28;20948;-72
2023/11/08 06:16:25;;;;;;;55.73;2.53;;;;;;;;;;5053260;28;20854;-74
2023/11/08 06:18:53;;;;;;;55.97;2.30;;;;;;;;;;5053432;28;20449;-72
2023/11/08 06:21:21;;;;;;;56.10;2.40;;;;;;;;;;5053169;28;20472;-72
2023/11/08 06:23:48;;;;;;;56.80;2.50;;;;;;;;;;5053502;28;20528;-71
2023/11/08 06:26:17;;;;;;;55.90;2.40;;;;;;;;;;5053076;28;20445;-72
2023/11/08 06:28:44;;;;;;;55.73;2.30;;;;;;;;;;5053249;28;20452;-72
2023/11/08 06:31:11;;;;;;;56.17;2.50;;;;;;;;;;5053127;28;20498;-71
2023/11/08 06:33:39;;;;;;;55.57;2.60;;;;;;;;;;5052789;28;20440;-72
2023/11/08 06:36:07;;;;;;;55.80;2.43;;;;;;;;;;5052808;28;20458;-71
2023/11/08 06:38:34;;;;;;;55.90;2.60;;;;;;;;;;5052941;28;20472;-73
2023/11/08 06:41:01;;;;;;;55.37;2.20;;;;;;;;;;5052896;28;20470;-72
2023/11/08 06:43:29;;;;;;;55.87;2.20;;;;;;;;;;5052608;28;20484;-73
2023/11/08 06:45:56;;;;;;;55.10;2.23;;;;;;;;;;5052739;28;20452;-72
2023/11/08 06:48:25;;;;;;;55.70;2.07;;;;;;;;;;5053095;28;20441;-72
2023/11/08 06:50:52;;;;;;;55.77;2.03;;;;;;;;;;5052872;28;20473;-71
2023/11/08 06:53:19;;;;;;;55.67;2.43;;;;;;;;;;5052653;28;20445;-72
2023/11/08 06:55:46;;;;;;;55.77;2.50;;;;;;;;;;5052104;28;20448;-73
2023/11/08 06:58:14;;;;;;;55.53;2.20;;;;;;;;;;5052294;28;20444;-72
2023/11/08 07:00:42;;;;;;;55.97;2.63;;;;;;;;;;5052405;28;20859;-72
2023/11/08 07:03:10;;;;;;;55.67;2.43;;;;;;;;;;5052400;28;20975;-71
2023/11/08 07:05:37;;;;;;;55.60;2.30;;;;;;;;;;5052264;28;20945;-72
2023/11/08 07:08:04;;;;;;;55.77;2.57;;;;;;;;;;5052777;28;20559;-71
2023/11/08 07:10:31;;;;;;;55.90;2.20;;;;;;;;;;5052462;28;20473;-72
2023/11/08 07:12:58;;;;;;;55.67;2.20;;;;;;;;;;5052382;28;20454;-72
2023/11/08 07:15:26;;;;;;;56.20;2.93;;;;;;;;;;5052533;28;20453;-71
2023/11/08 07:17:55;;;;;;;55.70;2.43;;;;;;;;;;5052368;28;20498;-72
2023/11/08 07:20:22;;;;;;;55.57;2.00;;;;;;;;;;5052268;28;20845;-71
2023/11/08 07:22:49;;;;;;;55.57;2.10;;;;;;;;;;5052276;28;20548;-72
2023/11/08 07:25:16;;;;;;;55.70;2.40;;;;;;;;;;5051099;28;21024;-72
2023/11/08 07:27:43;;;;;;;55.67;2.10;;;;;;;;;;5051956;28;20449;-71
2023/11/08 07:30:11;;;;;;;55.90;2.60;;;;;;;;;;5051904;28;20538;-71
2023/11/08 07:32:39;;;;;;;55.67;2.13;;;;;;;;;;5051850;28;20447;-72
2023/11/08 07:35:08;;;;;;;55.80;2.00;;;;;;;;;;5052003;28;20444;-71
2023/11/08 07:37:39;;;;;;;55.60;2.00;;;;;;;;;;5051880;28;20449;-72
2023/11/08 07:40:07;;;;;;;55.70;2.30;;;;;;;;;;5051808;28;20887;-71
2023/11/08 07:42:37;;;;;;;55.67;2.33;;;;;;;;;;5051774;28;20444;-71
2023/11/08 07:45:05;;;;;;;55.67;2.10;;;;;;;;;;5051803;28;20801;-72
2023/11/08 07:47:32;;;;;;;55.50;2.20;;;;;;;;;;5051446;28;20452;-72
2023/11/08 07:49:59;;;;;;;55.37;1.93;;;;;;;;;;5051521;28;20937;-72
2023/11/08 07:52:28;;;;;;;55.27;1.93;;;;;;;;;;5051416;28;20452;-71
2023/11/08 07:54:55;;;;;;;55.57;2.23;;;;;;;;;;5051402;28;20510;-72
2023/11/08 07:57:23;;;;;;;55.50;2.10;;;;;;;;;;5051601;28;20453;-71
2023/11/08 07:59:50;;;;;;;55.60;1.90;;;;;;;;;;5051621;28;20488;-71
2023/11/08 08:02:17;;;;;;;55.57;2.50;;;;;;;;;;5051367;28;20504;-71
2023/11/08 08:04:45;;;;;;;55.67;2.23;;;;;;;;;;5051293;28;20480;-72
2023/11/08 08:07:12;;;;;;;55.37;2.20;;;;;;;;;;5051240;28;20562;-72
2023/11/08 08:09:41;;;;;;;55.67;1.93;;;;;;;;;;5051251;28;20801;-72
2023/11/08 08:12:08;;;;;;;55.53;2.10;;;;;;;;;;5051325;28;20459;-72
2023/11/08 08:14:35;;;;;;;55.70;2.10;;;;;;;;;;5051195;28;20963;-71
2023/11/08 08:17:03;;;;;;;55.80;2.20;;;;;;;;;;5051101;28;20442;-71
2023/11/08 08:19:31;;;;;;;55.60;2.03;;;;;;;;;;5051179;28;20440;-72
2023/11/08 08:22:01;;;;;;;55.77;2.07;;;;;;;;;;5050984;28;20550;-73
2023/11/08 08:24:28;;;;;;;55.67;2.20;;;;;;;;;;5051220;28;20494;-73
2023/11/08 08:26:58;;;;;;;55.67;2.50;;;;;;;;;;5051134;28;20449;-71
2023/11/08 08:29:26;;;;;;;55.77;2.00;;;;;;;;;;5051049;28;20452;-72
2023/11/08 08:31:53;;;;;;;55.40;2.00;;;;;;;;;;5050775;28;20517;-72
2023/11/08 08:34:20;;;;;;;55.50;2.40;;;;;;;;;;5050794;28;20448;-73
2023/11/08 08:36:47;;;;;;;56.00;2.30;;;;;;;;;;5050902;28;20457;-72
2023/11/08 08:39:16;;;;;;;55.47;1.77;;;;;;;;;;5051120;28;20450;-72
2023/11/08 08:41:44;;;;;;;55.53;2.10;;;;;;;;;;5050925;28;20476;-71
2023/11/08 08:44:12;;;;;;;55.70;2.40;;;;;;;;;;5050906;28;20483;-72
2023/11/08 08:46:40;;;;;;;55.70;1.80;;;;;;;;;;5050547;28;20444;-72
2023/11/08 08:49:07;;;;;;;56.03;2.50;;;;;;;;;;5050766;28;20453;-71
2023/11/08 08:51:34;;;;;;;55.57;2.00;;;;;;;;;;5050627;28;20474;-72
2023/11/08 08:54:01;;;;;;;54.90;1.90;;;;;;;;;;5050881;28;20444;-72
2023/11/08 08:56:28;;;;;;;55.50;2.00;;;;;;;;;;5050463;28;20465;-72
2023/11/08 08:58:55;;;;;;;55.27;1.90;;;;;;;;;;5051227;28;20451;-72
2023/11/08 09:01:24;;;;;;;55.70;1.80;;;;;;;;;;5050305;28;20491;-73
2023/11/08 09:03:52;;;;;;;55.50;2.20;;;;;;;;;;5050777;28;20452;-72
2023/11/08 09:06:19;;;;;;;55.53;2.10;;;;;;;;;;5050606;28;20454;-72
2023/11/08 09:08:47;;;;;;;55.67;1.80;;;;;;;;;;5050768;28;20453;-71
2023/11/08 09:11:14;;;;;;;55.90;2.00;;;;;;;;;;5050682;28;20551;-71
2023/11/08 09:13:41;;;;;;;55.47;1.87;;;;;;;;;;5050623;28;20452;-72
2023/11/08 09:16:09;;;;;;;55.27;2.10;;;;;;;;;;5050339;28;20449;-72
2023/11/08 09:18:38;;;;;;;55.97;2.23;;;;;;;;;;5050593;28;20447;-69
2023/11/08 09:21:06;;;;;;;57.33;2.47;;;;;;;;;;5050289;28;20500;-70
2023/11/08 09:23:34;;;;;;;55.07;1.80;;;;;;;;;;5050425;28;20803;-69
2023/11/08 09:26:02;;;;;;;55.47;2.00;;;;;;;;;;5050196;28;20486;-69
2023/11/08 09:28:29;;;;;;;55.80;2.00;;;;;;;;;;5050454;28;20470;-70
2023/11/08 09:30:56;;;;;;;56.00;1.70;;;;;;;;;;5050512;28;20555;-70
2023/11/08 09:33:23;;;;;;;55.53;1.80;;;;;;;;;;5050613;28;20532;-71
2023/11/08 09:35:52;;;;;;;55.43;2.00;;;;;;;;;;5050246;28;20448;-70
2023/11/08 09:38:19;;;;;;;56.57;2.70;;;;;;;;;;5050342;28;20464;-70
2023/11/08 09:40:46;;;;;;;55.30;1.90;;;;;;;;;;5050353;28;20490;-70
2023/11/08 09:43:14;;;;;;;55.90;1.80;;;;;;;;;;5050074;28;20454;-71
2023/11/08 09:45:41;;;;;;;55.37;2.10;;;;;;;;;;5050284;28;20496;-70
2023/11/08 09:48:08;;;;;;;55.43;1.80;;;;;;;;;;5051879;28;20452;-70
2023/11/08 09:50:35;;;;;;;55.37;1.70;;;;;;;;;;5054258;28;20473;-70
2023/11/08 09:53:04;;;;;;;55.57;1.80;;;;;;;;;;5054213;28;20458;-70
2023/11/08 09:55:31;;;;;;;55.93;1.87;;;;;;;;;;5053791;28;20448;-70
2023/11/08 09:57:59;;;;;;;55.33;1.77;;;;;;;;;;5053744;28;20458;-71
2023/11/08 10:00:27;;;;;;;55.27;1.87;;;;;;;;;;5053567;28;20477;-71
2023/11/08 10:02:54;;;;;;;55.73;1.90;;;;;;;;;;5053930;28;20570;-70
2023/11/08 10:05:22;;;;;;;55.23;1.70;;;;;;;;;;5053598;28;20481;-70
2023/11/08 10:07:49;;;;;;;55.70;1.90;;;;;;;;;;5053596;28;20444;-70
2023/11/08 10:10:17;;;;;;;55.50;1.77;;;;;;;;;;5053414;28;20460;-70
2023/11/08 10:12:45;;;;;;;55.67;1.90;;;;;;;;;;5053852;28;20448;-71
2023/11/08 10:15:12;;;;;;;55.50;1.80;;;;;;;;;;5053575;28;20447;-71
2023/11/08 10:17:39;;;;;;;55.87;2.10;;;;;;;;;;5053388;28;20448;-70
2023/11/08 10:20:09;;;;;;;55.90;1.90;;;;;;;;;;5053390;28;21044;-70
2023/11/08 10:22:37;;;;;;;55.50;1.80;;;;;;;;;;5053066;28;20829;-70
2023/11/08 10:25:05;;;;;;;55.60;1.90;;;;;;;;;;5051170;28;21027;-72
2023/11/08 10:27:34;;;;;;;55.77;1.80;;;;;;;;;;5052123;28;20534;-70
2023/11/08 10:30:14;;;;;;;55.77;2.10;;;;;;;;;;5052371;28;20468;-69
2023/11/08 10:32:41;;;;;;;56.40;2.37;;;;;;;;;;5052252;28;20469;-70
2023/11/08 10:35:14;;;;;;;55.70;1.80;;;;;;;;;;5052256;28;20483;-71
2023/11/08 10:37:41;;;;;;;55.70;1.90;;;;;;;;;;5052675;28;20451;-70
2023/11/08 10:40:12;;;;;;;55.80;1.90;;;;;;;;;;5052802;28;20960;-70
2023/11/08 10:42:40;;;;;;;56.10;2.30;;;;;;;;;;5052445;28;21027;-71
2023/11/08 10:45:08;;;;;;;55.70;1.83;;;;;;;;;;5052771;28;20482;-69
2023/11/08 10:47:36;;;;;;;55.77;2.00;;;;;;;;;;5052548;28;20451;-72
2023/11/08 10:50:05;;;;;;;55.70;1.67;;;;;;;;;;5053093;28;20542;-70
2023/11/08 10:52:33;;;;;;;55.70;1.70;;;;;;;;;;5052534;28;20458;-71
2023/11/08 10:55:01;;;;;;;55.53;1.80;;;;;;;;;;5052741;28;20449;-73
2023/11/08 10:57:30;;;;;;;56.00;1.90;;;;;;;;;;5052150;28;20472;-69
2023/11/08 11:00:01;;;;;;;55.67;1.80;;;;;;;;;;5052187;28;20925;-69
2023/11/08 11:02:30;;;;;;;55.70;1.90;;;;;;;;;;5051127;28;20947;-69
2023/11/08 11:05:00;;;;;;;55.37;1.77;;;;;;;;;;5051851;28;20480;-70
2023/11/08 11:07:27;;;;;;;55.60;1.77;;;;;;;;;;5052047;28;20452;-71
2023/11/08 11:09:55;;;;;;;55.70;1.70;;;;;;;;;;5052472;28;20449;-72
2023/11/08 11:12:27;;;;;;;55.97;1.90;;;;;;;;;;5052014;28;20859;-72
2023/11/08 11:14:57;;;;;;;55.87;2.20;;;;;;;;;;5052010;28;20444;-71
2023/11/08 11:17:30;;;;;;;58.97;2.23;;;;;;;;;;5052153;28;20443;-70
2023/11/08 11:20:00;;;;;;;55.67;1.80;;;;;;;;;;5052513;28;20451;-71
2023/11/08 11:22:27;;;;;;;56.03;2.00;;;;;;;;;;5051323;28;20458;-70
2023/11/08 11:24:56;;;;;;;55.90;2.10;;;;;;;;;;5051843;28;20476;-70
2023/11/08 11:27:43;;;;;;;55.87;2.00;;;;;;;;;;5051541;28;20557;-71
2023/11/08 11:30:26;;;;;;;56.20;2.00;;;;;;;;;;5051824;28;20481;-71
2023/11/08 11:32:56;;;;;;;55.93;1.90;;;;;;;;;;5051602;28;20925;-69
2023/11/08 11:35:44;;;;;;;55.90;1.90;;;;;;;;;;5051793;28;20476;-71
2023/11/08 11:38:26;;;;;;;56.07;2.20;;;;;;;;;;5051983;28;20451;-73
2023/11/08 11:41:12;;;;;;;56.07;1.90;;;;;;;;;;5051646;28;20968;-70
2023/11/08 11:43:40;;;;;;;55.97;2.10;;;;;;;;;;5051054;28;20531;-69
2023/11/08 11:46:07;;;;;;;55.97;2.00;;;;;;;;;;5050751;28;20482;-70
2023/11/08 11:48:36;;;;;;;55.63;1.90;;;;;;;;;;5051359;28;20808;-70
2023/11/08 11:51:04;;;;;;;56.03;1.97;;;;;;;;;;5050883;28;20466;-70
2023/11/08 11:53:31;;;;;;;55.93;2.00;;;;;;;;;;5050529;28;20457;-71
2023/11/08 11:56:05;;;;;;;55.97;1.90;;;;;;;;;;5050930;28;20458;-70
2023/11/08 11:58:32;;;;;;;55.87;1.90;;;;;;;;;;5050648;28;20451;-70
2023/11/08 12:00:59;;;;;;;55.70;1.90;;;;;;;;;;5051306;28;20480;-70
2023/11/08 12:03:27;;;;;;;56.00;2.10;;;;;;;;;;5051642;28;20450;-70
2023/11/08 12:05:56;;;;;;;56.07;2.20;;;;;;;;;;5051251;28;20496;-71
2023/11/08 12:08:24;;;;;;;55.87;1.97;;;;;;;;;;5051477;28;20453;-70
2023/11/08 12:10:52;;;;;;;55.97;1.67;;;;;;;;;;5051130;28;20559;-71
2023/11/08 12:13:20;;;;;;;55.90;1.90;;;;;;;;;;5051459;28;20443;-70
2023/11/08 12:16:00;;;;;;;55.90;1.90;;;;;;;;;;5051010;28;20440;-71
2023/11/08 12:18:27;;;;;;;55.77;1.93;;;;;;;;;;5051131;28;20976;-70
2023/11/08 12:20:55;;;;;;;55.50;2.00;;;;;;;;;;5051278;28;20458;-70
2023/11/08 12:23:23;;;;;;;55.83;2.00;;;;;;;;;;5051040;28;20450;-71
2023/11/08 12:25:50;;;;;;;56.10;2.00;;;;;;;;;;5050784;28;20498;-70
2023/11/08 12:28:17;;;;;;;54.77;1.60;;;;;;;;;;5051476;28;20449;-70
2023/11/08 12:30:45;;;;;;;55.83;2.10;;;;;;;;;;5051062;28;20468;-69
2023/11/08 12:33:13;;;;;;;55.87;2.10;;;;;;;;;;5050984;28;20512;-69
2023/11/08 12:35:41;;;;;;;55.77;1.90;;;;;;;;;;5050943;28;20695;-69
2023/11/08 12:38:09;;;;;;;55.87;1.90;;;;;;;;;;5050869;28;20455;-70
2023/11/08 12:40:36;;;;;;;55.90;2.20;;;;;;;;;;5050959;28;20853;-69
2023/11/08 12:43:12;;;;;;;55.70;2.07;;;;;;;;;;5050960;28;20448;-73
2023/11/08 12:45:39;;;;;;;56.00;2.20;;;;;;;;;;5050759;28;20498;-69
2023/11/08 12:48:07;;;;;;;55.60;1.90;;;;;;;;;;5050824;28;20824;-70
2023/11/08 12:50:34;;;;;;;55.70;1.83;;;;;;;;;;5051055;28;20564;-70
2023/11/08 12:53:03;;;;;;;55.87;1.90;;;;;;;;;;5050890;28;20885;-70
2023/11/08 12:55:39;;;;;;;55.90;1.87;;;;;;;;;;5050868;28;20446;-69
2023/11/08 12:58:22;;;;;;;55.67;1.90;;;;;;;;;;5044006;28;20448;-70
2023/11/08 13:00:49;;;;;;;56.30;2.30;;;;;;;;;;5050522;28;20481;-69
2023/11/08 13:03:20;;;;;;;55.83;2.20;;;;;;;;;;5050527;28;20442;-69
2023/11/08 13:05:47;;;;;;;55.60;1.67;;;;;;;;;;5050347;28;20490;-72
2023/11/08 13:08:14;;;;;;;55.90;1.80;;;;;;;;;;5051063;28;20496;-71
2023/11/08 13:10:42;;;;;;;55.73;1.90;;;;;;;;;;5050520;28;20474;-70
2023/11/08 13:13:09;;;;;;;55.70;1.77;;;;;;;;;;5048950;28;20919;-72
2023/11/08 13:15:37;;;;;;;55.67;1.80;;;;;;;;;;5050270;28;20446;-70
2023/11/08 13:18:04;;;;;;;55.97;1.90;;;;;;;;;;5050157;28;20944;-72
2023/11/08 13:20:32;;;;;;;55.90;2.00;;;;;;;;;;5050664;28;20838;-69
2023/11/08 13:22:59;;;;;;;55.80;1.83;;;;;;;;;;5051791;28;20519;-71
2023/11/08 13:25:26;;;;;;;57.47;4.07;;;;;;;;;;5054497;28;20489;-71
2023/11/08 13:27:54;;;;;;;55.50;1.87;;;;;;;;;;5053980;28;20458;-71
2023/11/08 13:30:22;;;;;;;55.47;2.10;;;;;;;;;;5053998;28;20983;-70
2023/11/08 13:32:50;;;;;;;56.50;2.67;;;;;;;;;;5054118;28;20488;-70
2023/11/08 13:35:17;;;;;;;56.60;2.63;;;;;;;;;;5054170;28;20981;-70
2023/11/08 13:37:44;;;;;;;56.30;2.17;;;;;;;;;;5054056;28;20894;-70
2023/11/08 13:40:11;;;;;;;55.77;2.07;;;;;;;;;;5054026;28;20988;-71
2023/11/08 13:42:38;;;;;;;56.10;1.80;;;;;;;;;;5053667;28;20802;-72
2023/11/08 13:45:08;;;;;;;55.73;1.80;;;;;;;;;;5053722;28;20949;-69
2023/11/08 13:47:38;;;;;;;55.77;1.70;;;;;;;;;;5053580;28;20452;-71
2023/11/08 13:50:06;;;;;;;55.50;1.80;;;;;;;;;;5053986;28;20557;-71
2023/11/08 13:52:33;;;;;;;55.80;1.80;;;;;;;;;;5053543;28;20482;-70
2023/11/08 13:55:01;;;;;;;58.20;2.20;;;;;;;;;;5053715;28;20982;-70
2023/11/08 13:57:29;;;;;;;56.20;2.73;;;;;;;;;;5054001;28;20459;-71
2023/11/08 13:59:56;;;;;;;55.37;1.80;;;;;;;;;;5053746;28;20470;-71
2023/11/08 14:02:25;;;;;;;55.90;1.80;;;;;;;;;;5053965;28;20456;-71
2023/11/08 14:04:53;;;;;;;55.90;1.80;;;;;;;;;;5053424;28;20466;-71
2023/11/08 14:07:20;;;;;;;55.67;2.10;;;;;;;;;;5053589;28;20484;-71
2023/11/08 14:09:47;;;;;;;55.40;2.10;;;;;;;;;;5053448;28;20460;-71
2023/11/08 14:12:14;;;;;;;55.43;1.87;;;;;;;;;;5053672;28;20462;-70
2023/11/08 14:14:42;;;;;;;57.13;2.20;;;;;;;;;;5053569;28;20546;-70
2023/11/08 14:17:09;;;;;;;55.97;1.97;;;;;;;;;;5053585;28;20467;-71
2023/11/08 14:19:37;;;;;;;55.97;2.00;;;;;;;;;;5053535;28;20539;-71
2023/11/08 14:22:05;;;;;;;55.93;2.03;;;;;;;;;;5053249;28;20477;-71
2023/11/08 14:24:33;;;;;;;55.77;2.00;;;;;;;;;;5053378;28;20490;-70
2023/11/08 14:27:00;;;;;;;55.97;2.00;;;;;;;;;;5053381;28;20496;-72
2023/11/08 14:29:29;;;;;;;55.90;2.50;;;;;;;;;;5053565;28;21098;-70
2023/11/08 14:31:56;;;;;;;55.87;2.00;;;;;;;;;;5053072;28;20476;-70
2023/11/08 14:34:23;;;;;;;56.07;2.10;;;;;;;;;;5052937;28;20462;-70
2023/11/08 14:36:51;;;;;;;55.77;2.10;;;;;;;;;;5053039;28;20800;-70
2023/11/08 14:39:20;;;;;;;55.97;2.20;;;;;;;;;;5053326;28;20450;-71
2023/11/08 14:41:47;;;;;;;55.87;1.87;;;;;;;;;;5052999;28;20472;-70
2023/11/08 14:44:14;;;;;;;55.93;2.10;;;;;;;;;;5053177;28;20448;-71
2023/11/08 14:46:41;;;;;;;56.00;1.97;;;;;;;;;;5052745;28;21001;-70
2023/11/08 14:49:08;;;;;;;55.73;1.90;;;;;;;;;;5052981;28;20448;-70